Shenandoah, Virginia
Current Conditions -  °F | °C
As of 7:35 AM on Monday 26 Jan 2015 (Local Time) from K8W2 Reporting Station
Overcast Overcast  
Wind Chill: 26°   Ceiling: 500
Heat Index: 33°   Visibility: 1.5mi
Dew Point: 32°   Wind: 7mph
Humidity: 98%   Direction: 20°NNE
Pressure: 29.71"   Gusts: NA
Location:  38.49°N, 78.63°W
Report Text: K8W2 261235Z AUTO 02006KT 1 1/2SM BKN005 OVC014 00/00 A2971 RMK AO1 P0004 T00030000
Loading
Personal Weather Stations






























Interactive Weather Map New forecast layout! Learn more

10-Day Weather Forecast

Advertisements
Track Severe Weather on mobile